Terminal Aerodrome Forecast
Issued by NWS Boise, ID

Home | Current Version | Previous Version | Text Only | Print | Product List | Glossary On
Versions: 1 2 3 4 5 6 7 8 9 10 11 12 13 14 15 16 17 18 19 20 21 22 23 24 25 26 27 28 29 30 31 32
000
FTUS45 KBOI 011720
TAFBNO
TAF
KBNO 011720Z 0118/0218 27005KT P6SM VCSH OVC050
     FM012000 27005KT P6SM -SHRA SCT015 OVC030
     FM020100 VRB03KT P6SM VCSH SCT030 OVC050
     FM021600 VRB05KT P6SM -SHRA SCT015 OVC035=

USA.gov is the U.S. government's official web portal to all federal, state and local government web resources and services.